Time;durP1;ratioP1;P1;durP2;ratioP2;P2;SDS_P1;SDS_P2;PMS_P1;PMS_P2;Temp;Humidity;BMP_temperature;BMP_pressure;BME280_temperature;BME280_humidity;BME280_pressure;Samples;Min_cycle;Max_cycle;Signal;HPM_P1;HPM_P2
2022/01/24 00:01:05;;;;;;;6.77;4.73;;;;;;;-2.39;100.00;-23747.25;5075545;28;20261;-71
2022/01/24 00:03:31;;;;;;;9.10;4.90;;;;;;;-2.62;100.00;-23740.66;5071808;28;20247;-75
2022/01/24 00:05:56;;;;;;;9.07;5.13;;;;;;;-2.52;100.00;-23743.53;5085079;28;20233;-72
2022/01/24 00:08:22;;;;;;;7.90;4.90;;;;;;;-2.61;100.00;-23740.94;5075777;28;20205;-73
2022/01/24 00:10:49;;;;;;;7.10;4.63;;;;;;;-2.61;100.00;-23740.94;5058989;28;20670;-76
2022/01/24 00:13:55;;;;;;;9.23;5.33;;;;;;;-2.39;100.00;-23747.41;5073596;28;20261;-73
2022/01/24 00:16:34;;;;;;;8.43;5.17;;;;;;;-2.34;100.00;-23748.69;5072701;28;20178;-72
2022/01/24 00:26:55;;;;;;;7.07;4.40;;;;;;;-2.42;100.00;-23746.41;5073530;28;20185;-71
2022/01/24 00:29:22;;;;;;;8.97;5.30;;;;;;;-2.55;100.00;-23742.81;5055064;28;20206;-72
2022/01/24 00:31:47;;;;;;;10.07;6.07;;;;;;;-2.22;100.00;-23752.00;5054735;28;20182;-72
2022/01/24 00:34:15;;;;;;;7.77;5.20;;;;;;;-2.22;100.00;-23752.00;5054828;28;20220;-71
2022/01/24 00:36:41;;;;;;;10.37;6.17;;;;;;;-2.20;100.00;-23752.72;5053995;28;20592;-70
2022/01/24 00:39:07;;;;;;;10.30;6.80;;;;;;;-2.36;100.00;-23748.28;5072625;28;20173;-72
2022/01/24 00:42:30;;;;;;;8.27;5.43;;;;;;;-2.71;100.00;-23738.34;5076369;28;20187;-71
2022/01/24 00:47:02;;;;;;;8.43;5.37;;;;;;;-2.10;100.00;-23755.44;5092002;28;20666;-71
2022/01/24 00:54:52;;;;;;;9.17;5.60;;;;;;;-2.36;100.00;-23748.13;5072013;28;20165;-71
2022/01/24 00:57:21;;;;;;;10.20;6.80;;;;;;;-2.83;100.00;-23734.91;5071977;28;20158;-71
2022/01/24 00:59:48;;;;;;;12.37;6.90;;;;;;;-2.50;100.00;-23744.25;5074389;28;20178;-70
2022/01/24 01:02:14;;;;;;;9.57;5.43;;;;;;;-2.88;100.00;-23733.47;5078655;28;20188;-70
2022/01/24 01:18:24;;;;;;;9.40;5.40;;;;;;;-3.18;100.00;-23724.84;5076603;28;20621;-70
2022/01/24 01:23:23;;;;;;;9.27;5.57;;;;;;;-3.27;100.00;-23722.25;5073515;28;20251;-70
2022/01/24 01:25:50;;;;;;;9.07;5.77;;;;;;;-3.07;100.00;-23728.00;5075852;28;20174;-70
2022/01/24 01:28:17;;;;;;;11.07;6.10;;;;;;;-3.77;100.00;-23708.00;5074294;28;20265;-70
2022/01/24 01:30:46;;;;;;;11.77;6.37;;;;;;;-3.10;100.00;-23727.16;5070382;28;20216;-71
2022/01/24 01:34:07;;;;;;;11.93;6.70;;;;;;;-3.14;100.00;-23726.13;5071006;28;20271;-71
2022/01/24 01:36:17;;;;;;;11.40;6.57;;;;;;;-3.05;100.00;-23728.44;5075593;28;20240;-70
2022/01/24 01:57:32;;;;;;;17.17;9.43;;;;;;;-3.15;100.00;-23725.84;5092603;28;20227;-69
2022/01/24 01:59:57;;;;;;;15.83;9.10;;;;;;;-3.08;100.00;-23727.72;5079392;28;20177;-71
2022/01/24 02:02:23;;;;;;;14.60;8.80;;;;;;;-3.17;100.00;-23725.13;5080899;28;20215;-70
2022/01/24 02:04:48;;;;;;;14.60;8.27;;;;;;;-3.43;100.00;-23717.66;5074204;28;20233;-70
2022/01/24 02:07:17;;;;;;;15.63;9.30;;;;;;;-3.66;100.00;-23711.31;5091445;28;20663;-69
2022/01/24 02:09:45;;;;;;;15.60;8.53;;;;;;;-3.17;100.00;-23725.28;5093412;28;20280;-70
2022/01/24 02:12:12;;;;;;;12.57;7.83;;;;;;;-3.35;100.00;-23719.97;5086121;28;20212;-70
2022/01/24 02:14:47;;;;;;;14.60;9.07;;;;;;;-3.61;100.00;-23712.75;5078690;28;20184;-70
2022/01/24 02:17:19;;;;;;;16.07;9.17;;;;;;;-3.82;100.00;-23706.72;5095226;28;20177;-70
2022/01/24 02:23:15;;;;;;;18.20;8.37;;;;;;;-3.35;100.00;-23719.97;5074795;28;20204;-70
2022/01/24 02:25:06;;;;;;;18.00;9.00;;;;;;;-3.82;100.00;-23706.56;5060046;28;20190;-69
2022/01/24 02:27:42;;;;;;;15.67;9.07;;;;;;;-3.72;100.00;-23709.47;5074627;28;20224;-69
2022/01/24 02:33:10;;;;;;;16.43;8.93;;;;;;;-3.70;100.00;-23710.03;4992838;28;20656;-70
2022/01/24 02:35:36;;;;;;;19.17;10.70;;;;;;;-3.31;100.00;-23721.09;5065135;28;20288;-70
2022/01/24 02:38:08;;;;;;;19.57;11.33;;;;;;;-3.50;100.00;-23715.63;5077499;28;20185;-70
2022/01/24 02:40:34;;;;;;;21.77;11.17;;;;;;;-3.74;100.00;-23708.88;5061612;28;20272;-70
2022/01/24 02:48:26;;;;;;;15.23;8.87;;;;;;;-3.60;100.00;-23712.91;5087045;28;20289;-70
2022/01/24 02:53:37;;;;;;;16.90;10.43;;;;;;;-3.17;100.00;-23725.13;5089001;28;20233;-70
2022/01/24 02:56:04;;;;;;;14.43;7.83;;;;;;;-3.61;100.00;-23712.63;5094927;28;20558;-70
2022/01/24 02:58:31;;;;;;;17.77;9.30;;;;;;;-3.31;100.00;-23721.09;5073901;28;20196;-70
2022/01/24 03:00:58;;;;;;;14.37;8.27;;;;;;;-3.32;100.00;-23720.81;5074218;28;20212;-70
2022/01/24 03:03:23;;;;;;;13.60;8.30;;;;;;;-3.72;100.00;-23709.47;5074162;28;20213;-70
2022/01/24 03:05:49;;;;;;;14.93;8.50;;;;;;;-3.49;100.00;-23715.94;5073851;28;20226;-70
2022/01/24 03:08:15;;;;;;;14.90;8.83;;;;;;;-3.39;100.00;-23718.81;5073813;28;20205;-70
2022/01/24 03:10:46;;;;;;;16.47;8.83;;;;;;;-3.30;100.00;-23721.53;5073998;28;20177;-70
2022/01/24 03:15:53;;;;;;;16.97;11.07;;;;;;;-3.50;100.00;-23715.63;5083569;28;20270;-69
2022/01/24 03:18:19;;;;;;;16.23;9.33;;;;;;;-3.74;100.00;-23708.88;5075928;28;20174;-70
2022/01/24 03:20:45;;;;;;;15.73;9.30;;;;;;;-3.57;100.00;-23713.78;5094362;28;20172;-70
2022/01/24 03:23:12;;;;;;;18.60;9.50;;;;;;;-3.62;100.00;-23712.34;5087118;28;20184;-70
2022/01/24 03:25:38;;;;;;;14.93;9.00;;;;;;;-3.30;100.00;-23721.41;5073989;28;20645;-70
2022/01/24 03:28:04;;;;;;;17.57;9.33;;;;;;;-3.66;100.00;-23711.31;5073601;28;20644;-71
2022/01/24 03:30:31;;;;;;;17.30;10.27;;;;;;;-3.59;100.00;-23713.19;5073752;28;20186;-70
2022/01/24 03:32:57;;;;;;;15.87;9.37;;;;;;;-3.03;100.00;-23729.00;5073650;28;20178;-70
2022/01/24 03:35:22;;;;;;;18.43;9.17;;;;;;;-3.51;100.00;-23715.50;5073918;28;20166;-70
2022/01/24 03:37:48;;;;;;;19.00;12.03;;;;;;;-3.28;100.00;-23722.13;5073664;28;20182;-71
2022/01/24 03:40:13;;;;;;;22.03;12.30;;;;;;;-3.60;100.00;-23713.06;5080429;28;20652;-71
2022/01/24 03:42:39;;;;;;;20.30;12.00;;;;;;;-3.38;100.00;-23719.25;5077293;28;20724;-71
2022/01/24 03:45:09;;;;;;;20.23;10.87;;;;;;;-3.45;100.00;-23717.22;5091580;28;20188;-69
2022/01/24 03:50:00;;;;;;;24.83;15.13;;;;;;;-3.05;100.00;-23728.59;5073477;28;20178;-69
2022/01/24 03:52:26;;;;;;;22.23;13.27;;;;;;;-3.18;100.00;-23724.84;5072878;28;20177;-69
2022/01/24 03:54:52;;;;;;;21.53;13.63;;;;;;;-3.47;100.00;-23716.66;5075136;28;20182;-70
2022/01/24 03:57:20;;;;;;;25.37;15.73;;;;;;;-3.45;100.00;-23717.22;5081758;28;20558;-71
2022/01/24 03:59:46;;;;;;;24.50;13.47;;;;;;;-3.05;100.00;-23728.44;5078529;28;20271;-70
2022/01/24 04:02:13;;;;;;;23.40;12.73;;;;;;;-3.40;100.00;-23718.66;5079980;28;20274;-70
2022/01/24 04:04:39;;;;;;;21.97;12.40;;;;;;;-3.56;100.00;-23714.06;5072681;28;20237;-71
2022/01/24 04:07:05;;;;;;;21.63;11.80;;;;;;;-3.09;100.00;-23727.28;5086786;28;20212;-71
2022/01/24 04:09:30;;;;;;;23.53;13.20;;;;;;;-3.49;100.00;-23715.94;5089362;28;20298;-71
2022/01/24 04:11:58;;;;;;;22.33;13.43;;;;;;;-3.36;100.00;-23719.66;5074674;28;20617;-71
2022/01/24 04:14:38;;;;;;;25.63;13.33;;;;;;;-2.97;100.00;-23730.75;5076181;28;20208;-71
2022/01/24 04:22:14;;;;;;;18.57;10.93;;;;;;;-3.01;100.00;-23729.75;5075094;28;20185;-70
2022/01/24 04:24:41;;;;;;;21.30;11.40;;;;;;;-3.12;100.00;-23726.72;5074518;28;20287;-70
2022/01/24 04:27:07;;;;;;;25.07;12.53;;;;;;;-3.59;100.00;-23713.34;5074812;28;20188;-70
2022/01/24 04:29:32;;;;;;;20.33;11.90;;;;;;;-3.60;100.00;-23713.06;5075397;28;20206;-70
2022/01/24 04:31:58;;;;;;;22.10;11.83;;;;;;;-3.41;100.00;-23718.38;5073540;28;20264;-70
2022/01/24 04:34:23;;;;;;;19.70;11.47;;;;;;;-3.02;100.00;-23729.44;5074199;28;20552;-70
2022/01/24 04:36:49;;;;;;;21.20;11.97;;;;;;;-3.50;100.00;-23715.78;5075022;28;20184;-70
2022/01/24 04:39:15;;;;;;;23.13;15.43;;;;;;;-3.00;100.00;-23730.03;5074191;28;20192;-70
2022/01/24 04:41:45;;;;;;;24.77;15.00;;;;;;;-3.62;100.00;-23712.34;5073662;28;20667;-70
2022/01/24 04:54:40;;;;;;;23.90;12.23;;;;;;;-3.50;100.00;-23715.78;5073553;28;20177;-69
2022/01/24 04:57:08;;;;;;;22.47;11.73;;;;;;;-3.23;100.00;-23723.56;5074694;28;20784;-69
2022/01/24 04:59:34;;;;;;;23.50;12.00;;;;;;;-3.87;100.00;-23705.13;5073360;28;20178;-69
2022/01/24 05:01:59;;;;;;;23.53;11.23;;;;;;;-3.81;100.00;-23706.88;5074182;28;20277;-72
2022/01/24 05:04:25;;;;;;;24.40;13.23;;;;;;;-3.62;100.00;-23712.47;5079392;28;20243;-69
2022/01/24 05:06:50;;;;;;;25.53;13.43;;;;;;;-3.42;100.00;-23717.94;5079908;28;20204;-70
2022/01/24 05:09:18;;;;;;;29.57;15.87;;;;;;;-3.53;100.00;-23714.78;5072749;28;20217;-70
2022/01/24 05:11:59;;;;;;;31.07;16.93;;;;;;;-3.85;100.00;-23705.84;5074120;28;20174;-70
2022/01/24 05:25:20;;;;;;;39.87;22.23;;;;;;;-3.41;100.00;-23718.22;5092066;28;20180;-70
2022/01/24 05:27:46;;;;;;;41.00;22.87;;;;;;;-3.28;100.00;-23722.13;5091460;28;20169;-72
2022/01/24 05:30:13;;;;;;;40.60;23.50;;;;;;;-3.45;100.00;-23717.09;5091567;28;20180;-72
2022/01/24 05:32:38;;;;;;;44.73;24.50;;;;;;;-3.38;100.00;-23719.09;5090997;28;20168;-71
2022/01/24 05:35:04;;;;;;;44.43;26.23;;;;;;;-3.69;100.00;-23710.47;5091014;28;20607;-71
2022/01/24 05:37:29;;;;;;;47.70;26.93;;;;;;;-3.36;100.00;-23719.66;5091208;28;20177;-72
2022/01/24 05:39:55;;;;;;;48.07;28.07;;;;;;;-3.44;100.00;-23717.38;5090924;28;20181;-72
2022/01/24 05:42:21;;;;;;;51.50;29.60;;;;;;;-3.34;100.00;-23720.38;5072936;28;20629;-70
2022/01/24 05:44:50;;;;;;;57.33;30.20;;;;;;;-3.37;100.00;-23719.53;5090021;28;20235;-70
2022/01/24 05:47:16;;;;;;;54.23;30.33;;;;;;;-3.39;100.00;-23718.94;5090616;28;20310;-69
2022/01/24 05:49:42;;;;;;;54.57;32.27;;;;;;;-3.41;100.00;-23718.22;5090617;28;20270;-69
2022/01/24 05:52:09;;;;;;;60.87;32.00;;;;;;;-3.14;100.00;-23726.13;5090310;28;20671;-69
2022/01/24 05:54:39;;;;;;;57.03;30.20;;;;;;;-3.14;100.00;-23726.00;5090608;28;20217;-70
2022/01/24 05:57:05;;;;;;;49.87;28.97;;;;;;;-3.16;100.00;-23725.41;5089997;28;20544;-69
2022/01/24 05:59:30;;;;;;;50.53;27.27;;;;;;;-3.38;100.00;-23719.09;5090030;28;20199;-69
2022/01/24 06:01:55;;;;;;;52.50;27.53;;;;;;;-3.21;100.00;-23724.13;5090045;28;20181;-70
2022/01/24 06:04:21;;;;;;;48.23;26.90;;;;;;;-3.04;100.00;-23728.88;5090405;28;20173;-70
2022/01/24 06:06:46;;;;;;;49.93;26.93;;;;;;;-2.88;100.00;-23733.47;5090615;28;20172;-70
2022/01/24 06:09:12;;;;;;;46.93;25.93;;;;;;;-2.79;100.00;-23735.91;5090623;28;20201;-70
2022/01/24 06:11:37;;;;;;;46.47;25.57;;;;;;;-3.04;100.00;-23728.88;5090477;28;20173;-70
2022/01/24 06:14:04;;;;;;;44.60;24.87;;;;;;;-3.25;100.00;-23722.84;5090837;28;20173;-70
2022/01/24 06:16:29;;;;;;;49.53;26.23;;;;;;;-2.83;100.00;-23734.78;5090696;28;20200;-70
2022/01/24 06:18:55;;;;;;;51.50;25.90;;;;;;;-3.14;100.00;-23726.00;5090811;28;20182;-70
2022/01/24 06:21:21;;;;;;;50.53;27.27;;;;;;;-3.15;100.00;-23725.72;5090584;28;20552;-71
2022/01/24 06:23:46;;;;;;;51.00;27.33;;;;;;;-3.13;100.00;-23726.44;5072300;28;20177;-69
2022/01/24 06:26:12;;;;;;;51.07;26.77;;;;;;;-2.60;100.00;-23741.38;5075138;28;20189;-69
2022/01/24 06:28:37;;;;;;;49.93;27.27;;;;;;;-3.01;100.00;-23729.75;5075163;28;20664;-71
2022/01/24 06:31:03;;;;;;;47.47;27.03;;;;;;;-2.48;100.00;-23744.81;5077261;28;20233;-71
2022/01/24 06:33:29;;;;;;;54.10;26.27;;;;;;;-2.79;100.00;-23735.91;5073450;28;20293;-70
2022/01/24 06:35:54;;;;;;;41.80;23.33;;;;;;;-2.20;100.00;-23752.56;5080153;28;20208;-71
2022/01/24 06:38:20;;;;;;;43.70;23.87;;;;;;;-2.08;100.00;-23756.16;5083783;28;20186;-71
2022/01/24 06:40:46;;;;;;;45.50;24.47;;;;;;;-1.98;100.00;-23758.91;5083810;28;20180;-71
2022/01/24 06:43:11;;;;;;;45.83;23.60;;;;;;;-2.35;100.00;-23748.56;5084859;28;20185;-70
2022/01/24 06:45:36;;;;;;;43.50;23.63;;;;;;;-1.92;100.00;-23760.75;5081717;28;20650;-71
2022/01/24 06:48:02;;;;;;;41.50;23.43;;;;;;;-2.02;100.00;-23757.91;5063599;28;20557;-70
2022/01/24 06:50:28;;;;;;;38.60;21.53;;;;;;;-2.05;100.00;-23756.88;5077019;28;20185;-72
2022/01/24 06:52:53;;;;;;;40.27;22.53;;;;;;;-2.49;100.00;-23744.53;5064356;28;20190;-69
2022/01/24 06:55:18;;;;;;;43.93;24.97;;;;;;;-2.48;100.00;-23744.81;5084833;28;20190;-69
2022/01/24 06:57:44;;;;;;;77.13;37.40;;;;;;;-2.54;100.00;-23742.97;5078938;28;20624;-70
2022/01/24 07:00:10;;;;;;;85.13;42.40;;;;;;;-2.72;100.00;-23738.06;5092230;28;20264;-69
2022/01/24 07:02:35;;;;;;;98.73;45.00;;;;;;;-3.20;100.00;-23724.28;5083868;28;20204;-69
2022/01/24 07:05:00;;;;;;;76.57;38.30;;;;;;;-3.06;100.00;-23728.16;5073800;28;20586;-68
2022/01/24 07:07:26;;;;;;;78.60;40.10;;;;;;;-3.11;100.00;-23726.84;5056537;28;20228;-69
2022/01/24 07:09:52;;;;;;;63.37;32.13;;;;;;;-2.69;100.00;-23738.78;5066384;28;20251;-69
2022/01/24 07:12:18;;;;;;;56.90;30.90;;;;;;;-2.78;100.00;-23736.34;5076635;28;20525;-71
2022/01/24 07:14:44;;;;;;;66.33;34.20;;;;;;;-2.51;100.00;-23743.97;5065046;28;20263;-70
2022/01/24 07:17:28;;;;;;;61.77;32.83;;;;;;;-2.71;100.00;-23738.34;5074393;28;20666;-69
2022/01/24 07:19:53;;;;;;;53.00;26.80;;;;;;;-2.60;100.00;-23741.38;5081814;28;20631;-69
2022/01/24 07:22:19;;;;;;;49.30;26.87;;;;;;;-2.06;100.00;-23756.59;5076196;28;20210;-69
2022/01/24 07:24:44;;;;;;;50.73;25.13;;;;;;;-2.10;100.00;-23755.59;5094519;28;20246;-69
2022/01/24 07:27:10;;;;;;;45.67;24.40;;;;;;;-1.59;100.00;-23769.94;5086946;28;20247;-68
2022/01/24 07:29:35;;;;;;;38.00;21.37;;;;;;;-1.87;100.00;-23762.06;5082149;28;20213;-68
2022/01/24 07:32:01;;;;;;;38.43;21.50;;;;;;;-1.59;100.00;-23770.09;5076889;28;20485;-68
2022/01/24 07:34:27;;;;;;;39.30;22.00;;;;;;;-1.40;100.00;-23775.41;5084963;28;20244;-70
2022/01/24 07:36:55;;;;;;;37.17;21.63;;;;;;;-0.93;100.00;-23788.75;5073355;28;20182;-69
2022/01/24 07:39:21;;;;;;;41.23;21.23;;;;;;;-1.12;100.00;-23783.44;5092384;28;20182;-70
2022/01/24 07:41:47;;;;;;;38.30;21.93;;;;;;;-1.21;100.00;-23780.84;5089629;28;20186;-69
2022/01/24 07:44:14;;;;;;;36.37;20.47;;;;;;;-1.46;100.00;-23773.81;5055803;28;20171;-68
2022/01/24 07:46:40;;;;;;;32.83;18.80;;;;;;;-0.79;100.00;-23792.63;5054985;28;20210;-69
2022/01/24 07:49:10;;;;;;;30.80;18.17;;;;;;;-0.96;100.00;-23788.03;5055866;28;20237;-69
2022/01/24 07:51:36;;;;;;;42.03;20.57;;;;;;;-1.77;100.00;-23764.78;5073567;28;20170;-69
2022/01/24 07:54:02;;;;;;;39.03;22.10;;;;;;;-1.18;100.00;-23781.72;5073453;28;20230;-69
2022/01/24 07:56:27;;;;;;;46.70;23.10;;;;;;;-1.85;100.00;-23762.63;5072107;28;20205;-69
2022/01/24 07:58:53;;;;;;;42.43;22.13;;;;;;;-0.80;100.00;-23792.31;5073714;28;20228;-69
2022/01/24 08:01:19;;;;;;;39.63;21.87;;;;;;;-0.45;100.00;-23802.50;5073591;28;20231;-68
2022/01/24 08:03:46;;;;;;;41.50;23.47;;;;;;;-0.17;100.00;-23810.38;5055202;28;20177;-69
2022/01/24 08:06:12;;;;;;;40.43;22.63;;;;;;;-0.38;100.00;-23804.22;5073123;28;20250;-69
2022/01/24 08:08:37;;;;;;;39.97;22.20;;;;;;;0.18;100.00;-23820.25;5072964;28;20339;-68
2022/01/24 08:11:03;;;;;;;38.33;21.20;;;;;;;0.27;100.00;-23822.84;5072642;28;20188;-68
2022/01/24 08:13:28;;;;;;;28.77;16.90;;;;;;;0.03;100.00;-23815.81;5072815;28;20303;-69
2022/01/24 08:15:53;;;;;;;28.97;15.30;;;;;;;0.60;100.00;-23832.13;5072552;28;20178;-70
2022/01/24 08:18:19;;;;;;;27.27;15.83;;;;;;;0.84;100.00;-23839.00;5054443;28;20193;-69
2022/01/24 08:20:44;;;;;;;27.27;16.97;;;;;;;1.33;100.00;-23852.88;5073065;28;20174;-69
2022/01/24 08:23:11;;;;;;;29.87;16.83;;;;;;;1.49;100.00;-23857.16;5072013;28;20185;-69
2022/01/24 08:25:38;;;;;;;26.47;15.47;;;;;;;1.41;100.00;-23854.88;5072355;28;20258;-69
2022/01/24 08:28:04;;;;;;;25.10;14.57;;;;;;;1.08;100.00;-23845.59;5071817;28;20195;-69
2022/01/24 08:30:31;;;;;;;22.30;13.77;;;;;;;1.31;100.00;-23852.16;5072132;28;20255;-69
2022/01/24 08:32:56;;;;;;;23.53;13.33;;;;;;;1.41;100.00;-23854.88;5072007;28;20208;-69
2022/01/24 08:35:22;;;;;;;23.07;13.07;;;;;;;1.43;100.00;-23855.47;5072174;28;20171;-69
2022/01/24 08:37:49;;;;;;;22.33;13.20;;;;;;;2.04;99.05;-23872.88;5071833;28;20177;-70
2022/01/24 08:40:21;;;;;;;23.20;14.13;;;;;;;2.62;99.45;-23889.31;5072158;28;20245;-69
2022/01/24 08:43:35;;;;;;;17.33;11.10;;;;;;;2.41;91.31;-23883.16;5072481;28;20180;-73
2022/01/24 08:45:47;;;;;;;18.43;11.27;;;;;;;2.55;90.10;-23887.16;5068558;28;20200;-70
2022/01/24 08:48:16;;;;;;;17.37;10.00;;;;;;;2.65;83.91;-23890.00;5071750;28;20295;-70
2022/01/24 08:50:42;;;;;;;15.80;10.07;;;;;;;2.53;81.76;-23886.59;5072097;28;20181;-69
2022/01/24 08:53:08;;;;;;;22.83;11.87;;;;;;;2.45;81.51;-23884.44;5054252;28;20194;-70
2022/01/24 08:55:35;;;;;;;17.17;10.40;;;;;;;2.21;80.83;-23877.59;5072112;28;20181;-70
2022/01/24 08:58:02;;;;;;;16.43;10.50;;;;;;;2.69;80.32;-23891.16;5071790;28;20243;-69
2022/01/24 09:00:27;;;;;;;16.90;10.00;;;;;;;2.70;79.32;-23891.44;5071888;28;20185;-70
2022/01/24 09:02:53;;;;;;;20.00;9.40;;;;;;;2.06;77.38;-23873.31;5071702;28;20544;-69
2022/01/24 09:05:22;;;;;;;17.20;9.87;;;;;;;2.24;77.88;-23878.47;5071723;28;20232;-69
2022/01/24 09:07:48;;;;;;;13.63;9.23;;;;;;;2.71;72.56;-23891.59;5072040;28;20625;-70
2022/01/24 09:10:13;;;;;;;14.57;9.13;;;;;;;2.53;70.95;-23886.59;5071597;28;20181;-70
2022/01/24 09:12:39;;;;;;;14.80;8.97;;;;;;;1.79;73.36;-23865.75;5071617;28;20178;-70
2022/01/24 09:15:05;;;;;;;13.03;8.87;;;;;;;1.37;75.31;-23853.88;5071967;28;20173;-69
2022/01/24 09:17:31;;;;;;;14.53;9.20;;;;;;;1.78;72.78;-23865.47;5071479;28;20183;-70
2022/01/24 09:19:56;;;;;;;14.30;8.63;;;;;;;2.04;74.61;-23872.75;5071651;28;20626;-70
2022/01/24 09:22:22;;;;;;;15.10;9.27;;;;;;;1.67;70.61;-23862.47;5072007;28;20185;-69
2022/01/24 09:24:48;;;;;;;16.60;9.43;;;;;;;1.64;69.05;-23861.59;5073225;28;20322;-69
2022/01/24 09:27:15;;;;;;;15.47;9.10;;;;;;;2.10;69.09;-23874.47;5080929;28;20185;-69
2022/01/24 09:29:40;;;;;;;13.97;8.87;;;;;;;2.62;69.27;-23889.16;5080498;28;20209;-70
2022/01/24 09:32:06;;;;;;;16.73;9.50;;;;;;;2.75;68.29;-23892.72;5083224;28;20196;-68
2022/01/24 09:34:31;;;;;;;13.47;8.90;;;;;;;2.72;68.27;-23892.03;5064600;28;20204;-70
2022/01/24 09:36:57;;;;;;;17.20;9.73;;;;;;;2.75;68.97;-23892.72;5074874;28;20235;-69
2022/01/24 09:39:22;;;;;;;15.60;9.60;;;;;;;2.58;68.12;-23888.16;5083172;28;20678;-69
2022/01/24 09:41:48;;;;;;;16.50;10.37;;;;;;;1.58;70.25;-23859.88;5068469;28;20181;-69
2022/01/24 09:44:14;;;;;;;16.50;9.77;;;;;;;1.66;67.52;-23862.03;5077450;28;20189;-68
2022/01/24 09:46:40;;;;;;;17.47;10.20;;;;;;;1.82;67.79;-23866.47;5085051;28;20218;-68
2022/01/24 09:49:06;;;;;;;15.90;10.23;;;;;;;1.66;69.63;-23862.19;5080246;28;20216;-70
2022/01/24 09:51:33;;;;;;;20.17;11.03;;;;;;;2.28;70.84;-23879.44;5073850;28;20268;-69
2022/01/24 09:54:00;;;;;;;21.80;12.17;;;;;;;1.98;79.11;-23871.03;5077966;28;20213;-69
2022/01/24 09:56:26;;;;;;;21.50;11.90;;;;;;;1.80;82.66;-23866.03;5075802;28;20215;-69
2022/01/24 09:58:52;;;;;;;18.20;12.03;;;;;;;0.97;81.74;-23842.44;5074980;28;20221;-72
2022/01/24 10:01:18;;;;;;;20.40;12.50;;;;;;;1.12;83.47;-23846.88;5087838;28;20259;-71
2022/01/24 10:04:05;;;;;;;25.87;13.30;;;;;;;0.97;86.83;-23842.59;5078478;28;20187;-70
2022/01/24 10:06:58;;;;;;;21.00;12.93;;;;;;;1.55;84.49;-23858.88;5081923;28;20232;-70
2022/01/24 10:09:53;;;;;;;25.00;14.17;;;;;;;0.93;88.51;-23841.28;5084606;28;20210;-70
2022/01/24 10:17:54;;;;;;;16.23;9.80;;;;;;;0.62;82.67;-23832.56;5080626;28;20192;-70
2022/01/24 10:20:33;;;;;;;17.67;9.87;;;;;;;1.20;78.43;-23849.16;5079432;28;20272;-70
2022/01/24 10:23:17;;;;;;;16.17;10.27;;;;;;;0.83;78.95;-23838.72;5086448;28;20730;-72
2022/01/24 10:26:02;;;;;;;17.07;9.70;;;;;;;0.65;78.57;-23833.56;5086173;28;20319;-69
2022/01/24 10:28:30;;;;;;;14.57;9.23;;;;;;;0.79;75.02;-23837.44;5083912;28;20206;-71
2022/01/24 10:31:10;;;;;;;15.40;8.03;;;;;;;0.36;76.18;-23825.41;5085998;28;20185;-69
2022/01/24 10:34:06;;;;;;;10.93;6.87;;;;;;;0.69;76.67;-23834.72;5079964;28;20184;-71
2022/01/24 10:36:52;;;;;;;11.10;7.13;;;;;;;0.91;73.41;-23840.88;5073475;28;20189;-71
2022/01/24 10:39:53;;;;;;;14.50;8.33;;;;;;;1.10;72.77;-23846.16;5068184;28;20215;-70
2022/01/24 10:44:50;;;;;;;14.50;7.87;;;;;;;2.18;69.88;-23876.75;5083314;28;20185;-70
2022/01/24 10:47:31;;;;;;;14.97;7.33;;;;;;;2.45;69.35;-23884.31;5078892;28;20176;-71
2022/01/24 10:49:59;;;;;;;13.73;7.80;;;;;;;2.11;70.89;-23874.88;5085823;28;20196;-70
2022/01/24 10:52:28;;;;;;;14.97;8.83;;;;;;;2.05;71.35;-23873.16;5087163;28;20189;-69
2022/01/24 10:55:26;;;;;;;13.17;8.23;;;;;;;1.72;74.74;-23863.88;5077855;28;20219;-70
2022/01/24 10:58:15;;;;;;;14.87;8.50;;;;;;;1.79;77.27;-23865.75;5063038;28;20670;-70
2022/01/24 11:00:41;;;;;;;14.00;8.50;;;;;;;2.03;73.64;-23872.59;5081045;28;20207;-72
2022/01/24 11:03:14;;;;;;;14.93;8.07;;;;;;;1.67;73.42;-23862.47;5073669;28;20184;-69
2022/01/24 11:05:41;;;;;;;12.03;7.77;;;;;;;1.49;73.81;-23857.16;5079517;28;20597;-69
2022/01/24 11:08:15;;;;;;;11.03;7.27;;;;;;;0.96;70.62;-23842.16;5082636;28;20294;-71
2022/01/24 11:10:46;;;;;;;11.03;6.70;;;;;;;1.64;67.57;-23861.59;5078599;28;20589;-70
2022/01/24 11:13:12;;;;;;;11.03;7.13;;;;;;;1.33;68.12;-23852.88;5076210;28;20180;-69
2022/01/24 11:15:44;;;;;;;11.63;7.23;;;;;;;1.60;67.02;-23860.47;5063292;28;20191;-69
2022/01/24 11:18:14;;;;;;;14.10;7.40;;;;;;;1.61;66.05;-23860.59;5089126;28;20210;-69
2022/01/24 11:20:44;;;;;;;21.13;8.27;;;;;;;0.36;65.45;-23825.41;5082690;28;20267;-68
2022/01/24 11:23:10;;;;;;;13.13;7.37;;;;;;;0.61;64.36;-23832.28;5078011;28;20223;-69
2022/01/24 11:25:39;;;;;;;17.97;8.33;;;;;;;0.69;67.35;-23834.56;5083877;28;20261;-69
2022/01/24 11:28:06;;;;;;;13.43;7.33;;;;;;;0.80;66.69;-23837.88;5078620;28;20190;-69
2022/01/24 11:30:37;;;;;;;14.70;7.60;;;;;;;0.96;68.37;-23842.31;5084562;28;20218;-69
2022/01/24 11:33:08;;;;;;;10.47;6.90;;;;;;;1.46;66.76;-23856.31;5077397;28;20264;-69
2022/01/24 11:35:41;;;;;;;11.83;7.23;;;;;;;1.21;65.11;-23849.31;5082041;28;20238;-70
2022/01/24 11:38:26;;;;;;;13.67;7.90;;;;;;;1.73;65.70;-23864.16;5063348;28;20175;-69
2022/01/24 11:41:00;;;;;;;13.00;7.90;;;;;;;1.59;64.40;-23860.16;5081692;28;20591;-70
2022/01/24 11:43:34;;;;;;;13.63;7.77;;;;;;;1.40;64.93;-23854.75;5081457;28;20182;-69
2022/01/24 11:46:07;;;;;;;10.50;6.50;;;;;;;0.95;62.36;-23841.88;5082129;28;20192;-69
2022/01/24 11:48:34;;;;;;;11.67;6.80;;;;;;;0.82;63.10;-23838.44;5079589;28;20576;-70
2022/01/24 11:51:06;;;;;;;11.57;6.70;;;;;;;1.19;61.85;-23848.75;5080640;28;20266;-71
2022/01/24 11:53:36;;;;;;;10.73;6.60;;;;;;;0.77;62.46;-23837.00;5077520;28;20187;-71
2022/01/24 11:56:20;;;;;;;9.50;5.93;;;;;;;0.36;63.98;-23825.41;5076520;28;20174;-71
2022/01/24 11:58:46;;;;;;;15.03;6.83;;;;;;;0.17;65.55;-23819.84;5079714;28;20200;-70
2022/01/24 12:01:18;;;;;;;11.83;6.53;;;;;;;-0.31;63.29;-23806.38;5077243;28;20199;-69
2022/01/24 12:03:53;;;;;;;13.60;7.03;;;;;;;-0.13;65.78;-23811.38;5079842;28;20234;-69
2022/01/24 12:06:20;;;;;;;13.90;7.23;;;;;;;-0.40;67.00;-23803.66;5081064;28;20231;-70
2022/01/24 12:08:51;;;;;;;12.20;6.97;;;;;;;-0.13;65.36;-23811.53;5079376;28;20212;-70
2022/01/24 12:11:31;;;;;;;11.67;5.63;;;;;;;-0.25;61.89;-23808.09;5081648;28;20290;-70
2022/01/24 12:14:11;;;;;;;10.03;5.47;;;;;;;-0.51;61.35;-23800.63;5080798;28;20592;-70
2022/01/24 12:16:42;;;;;;;9.63;5.97;;;;;;;-0.88;61.44;-23790.03;5073212;28;20174;-70
2022/01/24 12:19:10;;;;;;;10.70;6.07;;;;;;;-0.52;62.22;-23800.50;5081333;28;20194;-70
2022/01/24 12:21:38;;;;;;;11.43;5.80;;;;;;;-0.29;62.37;-23806.81;5073255;28;20268;-70
2022/01/24 12:24:10;;;;;;;11.93;6.43;;;;;;;-0.22;62.47;-23808.94;5081244;28;20707;-69
2022/01/24 12:26:44;;;;;;;10.33;6.10;;;;;;;-0.30;63.64;-23806.66;5055678;28;20587;-70
2022/01/24 12:29:13;;;;;;;8.73;5.40;;;;;;;0.14;58.85;-23818.97;5081546;28;20638;-71
2022/01/24 12:31:45;;;;;;;10.03;5.93;;;;;;;0.38;57.16;-23825.84;5072374;28;20269;-71
2022/01/24 12:34:25;;;;;;;8.23;5.80;;;;;;;0.56;57.96;-23831.00;5082080;28;20181;-71
2022/01/24 12:37:00;;;;;;;12.77;6.27;;;;;;;-0.29;57.75;-23806.94;5084073;28;20326;-71
2022/01/24 12:39:34;;;;;;;9.27;5.60;;;;;;;1.09;55.44;-23845.88;5079279;28;20188;-71
2022/01/24 12:42:07;;;;;;;9.83;6.20;;;;;;;1.09;56.32;-23845.88;5078899;28;20201;-71
2022/01/24 12:47:05;;;;;;;9.87;5.97;;;;;;;1.08;56.46;-23845.59;5071821;28;20179;-71
2022/01/24 12:49:31;;;;;;;11.70;6.20;;;;;;;1.57;55.32;-23859.47;5082998;28;20694;-71
2022/01/24 12:52:02;;;;;;;11.77;5.70;;;;;;;1.21;56.22;-23849.31;5072242;28;20190;-70
2022/01/24 12:54:33;;;;;;;12.80;6.73;;;;;;;0.69;57.41;-23834.72;5082644;28;20552;-70
2022/01/24 12:57:00;;;;;;;11.83;6.60;;;;;;;0.69;58.07;-23834.56;5071520;28;20180;-70
2022/01/24 12:59:27;;;;;;;9.63;5.90;;;;;;;0.86;57.22;-23839.59;5083154;28;20193;-70
2022/01/24 13:01:56;;;;;;;10.43;6.10;;;;;;;0.33;59.35;-23824.41;5071979;28;20185;-70
2022/01/24 13:04:39;;;;;;;11.27;5.73;;;;;;;0.41;59.32;-23826.72;5082464;28;20193;-71
2022/01/24 13:07:07;;;;;;;9.73;5.50;;;;;;;0.64;58.14;-23833.28;5059312;28;20196;-70